Time;durP1;ratioP1;P1;durP2;ratioP2;P2;SDS_P1;SDS_P2;PMS_P1;PMS_P2;Temp;Humidity;BMP_temperature;BMP_pressure;BME280_temperature;BME280_humidity;BME280_pressure;Samples;Min_cycle;Max_cycle;Signal;HPM_P1;HPM_P2
2021/04/18 00:00:20;;;;;;;3.70;0.70;;;4.30;99.90;;;;;;4989225;28;20031;-76
2021/04/18 00:02:50;;;;;;;4.57;1.00;;;4.20;99.90;;;;;;4989178;28;20034;-76
2021/04/18 00:05:36;;;;;;;3.35;0.70;;;4.20;99.90;;;;;;5006520;28;20023;-76
2021/04/18 00:08:03;;;;;;;4.65;0.75;;;4.10;99.90;;;;;;4984303;28;20062;-76
2021/04/18 00:10:36;;;;;;;2.97;0.70;;;4.10;99.90;;;;;;4984854;28;20039;-76
2021/04/18 00:13:06;;;;;;;3.45;0.90;;;4.10;99.90;;;;;;4968212;28;20126;-76
2021/04/18 00:15:32;;;;;;;5.93;1.10;;;4.00;99.90;;;;;;4984531;28;20039;-76
2021/04/18 00:17:57;;;;;;;4.40;0.75;;;4.00;99.90;;;;;;4984448;28;20074;-76
2021/04/18 00:20:23;;;;;;;2.70;0.70;;;4.00;99.90;;;;;;4984505;28;20046;-76
2021/04/18 00:22:49;;;;;;;4.47;0.70;;;4.00;99.90;;;;;;4984370;28;20045;-76
2021/04/18 00:25:17;;;;;;;3.47;0.63;;;3.90;99.90;;;;;;4984790;28;20082;-76
2021/04/18 00:27:43;;;;;;;4.93;0.70;;;3.90;99.90;;;;;;4984562;28;20137;-76
2021/04/18 00:30:12;;;;;;;2.88;0.80;;;3.80;99.90;;;;;;4984524;28;20066;-76
2021/04/18 00:32:39;;;;;;;5.47;1.08;;;3.90;99.90;;;;;;4984029;28;20043;-76
2021/04/18 00:35:06;;;;;;;2.65;0.70;;;3.80;99.90;;;;;;4968299;28;20462;-76
2021/04/18 00:37:32;;;;;;;3.67;0.80;;;3.80;99.90;;;;;;4984178;28;20058;-76
2021/04/18 00:39:58;;;;;;;4.32;1.20;;;3.60;99.90;;;;;;4968123;28;20022;-76
2021/04/18 00:42:23;;;;;;;3.60;0.75;;;3.60;99.90;;;;;;4984141;28;20031;-76
2021/04/18 00:44:49;;;;;;;6.13;0.80;;;3.40;99.90;;;;;;4965354;29;20043;-76
2021/04/18 00:47:17;;;;;;;4.20;0.80;;;3.40;99.90;;;;;;4965957;29;20035;-76
2021/04/18 00:49:44;;;;;;;4.18;1.27;;;3.40;99.90;;;;;;4965997;28;20035;-76
2021/04/18 00:52:10;;;;;;;6.25;1.00;;;3.30;99.90;;;;;;4966538;28;20035;-76
2021/04/18 00:54:36;;;;;;;4.82;1.00;;;3.30;99.90;;;;;;4954644;29;20090;-76
2021/04/18 00:57:02;;;;;;;3.97;0.90;;;3.20;99.90;;;;;;4969899;28;20047;-76
2021/04/18 00:59:28;;;;;;;3.17;0.80;;;3.10;99.90;;;;;;4969895;28;20043;-76
2021/04/18 01:01:54;;;;;;;5.78;1.25;;;3.00;99.90;;;;;;4970861;29;20024;-76
2021/04/18 01:04:21;;;;;;;3.10;0.80;;;3.00;99.90;;;;;;4970964;28;20099;-76
2021/04/18 01:06:46;;;;;;;4.82;0.98;;;3.00;99.90;;;;;;4991179;28;20135;-76
2021/04/18 01:09:12;;;;;;;3.78;0.82;;;3.00;99.90;;;;;;5029364;28;20026;-76
2021/04/18 01:11:38;;;;;;;6.25;0.93;;;2.90;99.90;;;;;;5029329;28;20033;-76
2021/04/18 01:14:04;;;;;;;2.90;1.27;;;2.90;99.90;;;;;;5011639;28;20022;-76
2021/04/18 01:16:30;;;;;;;4.38;0.70;;;2.80;99.90;;;;;;5027837;28;20042;-76
2021/04/18 01:18:56;;;;;;;4.70;0.95;;;2.80;99.90;;;;;;5027976;28;20037;-76
2021/04/18 01:21:22;;;;;;;2.53;0.50;;;2.80;99.90;;;;;;5029208;28;20052;-76
2021/04/18 01:24:07;;;;;;;4.35;0.90;;;2.80;99.90;;;;;;5029078;28;20070;-76
2021/04/18 01:26:55;;;;;;;4.70;0.80;;;2.80;99.90;;;;;;5029228;28;20025;-76
2021/04/18 01:29:21;;;;;;;3.92;0.77;;;2.70;99.90;;;;;;5011352;28;20061;-76
2021/04/18 01:31:47;;;;;;;6.18;0.90;;;2.70;99.90;;;;;;5011165;28;20034;-76
2021/04/18 01:34:14;;;;;;;4.18;0.70;;;2.70;99.90;;;;;;5028884;28;20040;-76
2021/04/18 01:36:45;;;;;;;2.53;0.70;;;2.70;99.90;;;;;;5028713;28;20112;-76
2021/04/18 01:39:13;;;;;;;5.90;1.00;;;2.50;99.90;;;;;;5028966;28;20029;-76
2021/04/18 01:41:40;;;;;;;5.82;0.98;;;2.60;99.90;;;;;;5011101;28;20042;-76
2021/04/18 01:44:11;;;;;;;4.10;1.00;;;2.60;99.90;;;;;;5011189;28;20034;-76
2021/04/18 01:46:46;;;;;;;6.00;1.00;;;2.50;99.90;;;;;;4994966;28;20026;-76
2021/04/18 01:49:12;;;;;;;5.10;0.93;;;2.40;99.90;;;;;;5028671;28;20088;-76
2021/04/18 01:51:39;;;;;;;3.65;1.00;;;2.50;99.90;;;;;;5010994;28;20037;-76
2021/04/18 01:54:06;;;;;;;5.22;0.70;;;2.40;99.90;;;;;;5028730;28;20105;-76
2021/04/18 01:56:32;;;;;;;3.05;0.90;;;2.40;99.90;;;;;;5027187;28;20026;-76
2021/04/18 01:58:59;;;;;;;4.03;1.05;;;2.40;99.90;;;;;;5010835;28;20045;-76
2021/04/18 02:01:48;;;;;;;3.65;0.90;;;2.30;99.90;;;;;;5027296;28;20038;-76
2021/04/18 02:04:26;;;;;;;4.47;0.90;;;2.30;99.90;;;;;;5026356;28;20080;-76
2021/04/18 02:06:57;;;;;;;2.97;0.90;;;2.30;99.90;;;;;;5026818;28;20033;-76
2021/04/18 02:09:23;;;;;;;2.85;0.65;;;2.40;99.90;;;;;;5010902;28;20044;-76
2021/04/18 02:11:49;;;;;;;6.05;1.00;;;2.30;99.90;;;;;;5010789;28;20098;-76
2021/04/18 02:14:16;;;;;;;4.85;0.73;;;2.30;99.90;;;;;;5028377;28;20034;-76
2021/04/18 02:16:49;;;;;;;5.63;1.35;;;2.20;99.90;;;;;;5010636;28;20049;-76
2021/04/18 02:19:16;;;;;;;4.13;1.00;;;2.20;99.90;;;;;;5028143;28;20026;-76
2021/04/18 02:21:43;;;;;;;5.50;1.02;;;2.30;99.90;;;;;;5026827;28;20030;-76
2021/04/18 02:24:10;;;;;;;4.72;1.00;;;2.20;99.90;;;;;;5010529;28;20029;-76
2021/04/18 02:26:36;;;;;;;4.35;0.80;;;2.20;99.90;;;;;;5010843;28;20482;-76
2021/04/18 02:29:03;;;;;;;5.00;1.40;;;2.20;99.90;;;;;;5010350;28;20032;-76
2021/04/18 02:31:33;;;;;;;4.90;0.77;;;2.20;99.90;;;;;;5010381;28;20101;-75
2021/04/18 02:33:58;;;;;;;5.28;0.80;;;2.20;99.90;;;;;;5010245;28;20060;-76
2021/04/18 02:36:24;;;;;;;7.07;0.98;;;2.10;99.90;;;;;;5010176;28;20057;-76
2021/04/18 02:38:50;;;;;;;5.55;0.90;;;2.10;99.90;;;;;;5010366;28;20029;-76
2021/04/18 02:41:17;;;;;;;5.82;0.82;;;2.10;99.90;;;;;;5026471;28;20038;-76
2021/04/18 02:43:42;;;;;;;6.30;0.80;;;2.00;99.90;;;;;;4993941;28;20137;-76
2021/04/18 02:46:09;;;;;;;3.88;0.90;;;2.00;99.90;;;;;;5010057;28;20056;-76
2021/04/18 02:48:35;;;;;;;2.67;0.70;;;2.00;99.90;;;;;;5009905;28;20026;-76
2021/04/18 02:51:01;;;;;;;6.55;1.40;;;2.00;99.90;;;;;;5010101;28;20041;-76
2021/04/18 02:53:27;;;;;;;4.63;1.13;;;2.00;99.90;;;;;;5009972;28;20448;-76
2021/04/18 02:55:53;;;;;;;4.15;0.85;;;2.00;99.90;;;;;;5027331;28;20037;-76
2021/04/18 02:58:27;;;;;;;8.77;0.88;;;1.90;99.90;;;;;;5010150;28;20085;-76
2021/04/18 03:00:54;;;;;;;7.10;1.10;;;2.00;99.90;;;;;;5010067;28;20041;-76
2021/04/18 03:03:21;;;;;;;3.45;0.90;;;1.90;99.90;;;;;;4993726;28;20034;-76
2021/04/18 03:05:47;;;;;;;3.33;0.77;;;1.90;99.90;;;;;;5025560;28;20030;-76
2021/04/18 03:08:13;;;;;;;3.58;0.77;;;1.80;99.90;;;;;;5009545;28;20077;-76
2021/04/18 03:10:39;;;;;;;5.50;1.05;;;1.80;99.90;;;;;;5009676;28;20396;-76
2021/04/18 03:13:07;;;;;;;5.68;1.40;;;1.80;99.90;;;;;;5009497;28;20053;-76
2021/04/18 03:15:36;;;;;;;4.82;1.13;;;1.80;99.90;;;;;;5008796;28;20026;-76
2021/04/18 03:18:07;;;;;;;7.82;1.42;;;1.80;99.90;;;;;;4993782;28;20041;-75
2021/04/18 03:20:33;;;;;;;6.47;1.55;;;1.70;99.90;;;;;;5009225;28;20049;-76
2021/04/18 03:22:59;;;;;;;7.50;1.15;;;1.70;99.90;;;;;;5009193;28;20525;-76
2021/04/18 03:25:25;;;;;;;4.10;1.20;;;1.70;99.90;;;;;;5009243;28;20547;-76
2021/04/18 03:27:51;;;;;;;3.38;1.23;;;1.70;99.90;;;;;;5009355;28;20033;-76
2021/04/18 03:30:27;;;;;;;6.72;1.48;;;1.70;99.90;;;;;;5009205;28;20036;-76
2021/04/18 03:32:56;;;;;;;4.43;0.93;;;1.60;99.90;;;;;;4993409;28;20026;-76
2021/04/18 03:35:23;;;;;;;4.38;1.05;;;1.60;99.90;;;;;;5025271;28;20041;-76
2021/04/18 03:37:50;;;;;;;4.70;0.90;;;1.60;99.90;;;;;;5026807;28;20044;-76
2021/04/18 03:40:17;;;;;;;7.45;1.10;;;1.60;99.90;;;;;;5025685;28;20490;-76
2021/04/18 03:42:43;;;;;;;2.42;0.73;;;1.60;99.90;;;;;;5008645;28;20026;-76
2021/04/18 03:45:10;;;;;;;8.98;2.03;;;1.50;99.90;;;;;;5008960;28;20036;-76
2021/04/18 03:47:37;;;;;;;5.40;1.10;;;1.60;99.90;;;;;;5026448;28;20083;-76
2021/04/18 03:50:07;;;;;;;6.30;0.90;;;1.50;99.90;;;;;;5008718;28;20112;-76
2021/04/18 03:52:55;;;;;;;4.22;0.95;;;1.50;99.90;;;;;;4994788;28;20053;-75
2021/04/18 03:55:24;;;;;;;4.32;0.80;;;1.30;99.90;;;;;;5009084;28;20087;-76
2021/04/18 03:57:51;;;;;;;3.38;1.30;;;1.30;99.90;;;;;;4992345;28;20057;-76
2021/04/18 04:00:18;;;;;;;4.35;1.15;;;1.30;99.90;;;;;;5008747;28;20033;-76
2021/04/18 04:02:56;;;;;;;6.07;1.30;;;1.40;99.90;;;;;;5008366;28;20038;-76
2021/04/18 04:05:22;;;;;;;5.18;1.13;;;1.40;99.90;;;;;;5008476;28;20026;-76
2021/04/18 04:07:47;;;;;;;4.47;1.20;;;1.40;99.90;;;;;;4988787;28;20050;-77
2021/04/18 04:10:14;;;;;;;5.13;0.80;;;1.40;99.90;;;;;;4989035;28;20023;-76
2021/04/18 04:12:44;;;;;;;;;;;1.40;99.90;;;;;;5005424;28;20097;-76
2021/04/18 04:15:10;;;;;;;6.22;1.23;;;1.30;99.90;;;;;;4989177;28;19914;-76
2021/04/18 04:17:36;;;;;;;5.57;1.10;;;1.30;99.90;;;;;;4988840;28;20286;-76
2021/04/18 04:20:23;;;;;;;5.72;1.23;;;1.20;99.90;;;;;;4988908;28;20030;-75
2021/04/18 04:23:18;;;;;;;4.55;1.17;;;1.30;99.90;;;;;;4957478;28;20061;-76
2021/04/18 04:25:44;;;;;;;4.13;1.10;;;1.20;99.90;;;;;;5006354;28;20058;-76
2021/04/18 04:28:09;;;;;;;5.47;1.20;;;1.20;99.90;;;;;;5005989;28;20122;-75
2021/04/18 04:30:35;;;;;;;5.10;1.20;;;1.20;99.90;;;;;;5005134;28;20031;-76
2021/04/18 04:33:01;;;;;;;4.45;1.10;;;1.20;99.90;;;;;;4988565;28;20035;-75
2021/04/18 04:35:27;;;;;;;4.18;1.15;;;1.20;99.90;;;;;;4988487;28;20048;-76
2021/04/18 04:37:53;;;;;;;3.80;1.38;;;1.20;99.90;;;;;;5006115;28;20050;-76
2021/04/18 04:40:19;;;;;;;4.15;0.80;;;1.20;99.90;;;;;;5005107;28;20058;-76
2021/04/18 04:42:44;;;;;;;3.83;1.45;;;1.20;99.90;;;;;;4988405;28;20034;-76
2021/04/18 04:45:11;;;;;;;4.32;1.15;;;1.20;99.90;;;;;;5006142;28;20078;-76
2021/04/18 04:47:37;;;;;;;5.88;1.33;;;1.20;99.90;;;;;;4987926;28;20045;-76
2021/04/18 04:50:04;;;;;;;5.60;1.50;;;1.10;99.90;;;;;;4988205;28;20030;-76
2021/04/18 04:52:29;;;;;;;4.25;1.25;;;1.10;99.90;;;;;;4971482;28;20121;-76
2021/04/18 04:54:55;;;;;;;4.65;1.20;;;1.20;99.90;;;;;;5004141;28;20498;-76
2021/04/18 04:57:21;;;;;;;4.38;0.90;;;1.20;99.90;;;;;;4987662;28;20049;-76
2021/04/18 04:59:47;;;;;;;4.28;1.17;;;1.20;99.90;;;;;;5005392;28;20032;-76
2021/04/18 05:02:13;;;;;;;6.03;1.40;;;1.20;99.90;;;;;;5005170;28;20090;-76
2021/04/18 05:04:38;;;;;;;5.80;1.85;;;1.20;99.90;;;;;;4991422;28;20049;-76
2021/04/18 05:07:04;;;;;;;3.92;1.30;;;1.30;99.90;;;;;;5015298;23;20058;-76
2021/04/18 05:09:29;;;;;;;4.78;1.17;;;1.30;99.90;;;;;;5007791;28;20037;-76
2021/04/18 05:11:55;;;;;;;6.07;2.03;;;1.30;99.90;;;;;;5007544;28;20177;-76
2021/04/18 05:14:21;;;;;;;6.28;1.67;;;1.40;99.90;;;;;;5007619;28;20042;-76
2021/04/18 05:16:47;;;;;;;4.70;1.48;;;1.40;99.90;;;;;;5007297;28;20042;-75
2021/04/18 05:19:12;;;;;;;7.07;1.25;;;1.50;99.90;;;;;;5007583;28;20049;-76
2021/04/18 05:21:38;;;;;;;4.53;1.67;;;1.60;99.90;;;;;;5007401;28;20030;-76
2021/04/18 05:24:04;;;;;;;5.15;1.05;;;1.70;99.90;;;;;;4991243;28;20029;-77
2021/04/18 05:26:30;;;;;;;3.17;1.02;;;1.70;99.90;;;;;;5007434;28;20026;-76
2021/04/18 05:28:55;;;;;;;3.55;1.00;;;1.80;99.90;;;;;;5007216;28;20040;-75
2021/04/18 05:31:22;;;;;;;3.70;1.33;;;1.90;99.90;;;;;;5007412;28;20030;-76
2021/04/18 05:33:51;;;;;;;5.38;1.38;;;1.90;99.90;;;;;;5005431;28;20065;-76
2021/04/18 05:36:16;;;;;;;3.90;0.95;;;2.00;99.90;;;;;;4989986;28;20437;-76
2021/04/18 05:38:42;;;;;;;3.90;1.88;;;2.00;99.90;;;;;;5007165;28;20084;-76
2021/04/18 05:41:08;;;;;;;4.70;1.17;;;2.00;99.90;;;;;;5010691;28;20026;-76
2021/04/18 05:43:33;;;;;;;6.75;1.58;;;2.20;99.90;;;;;;5010698;28;20077;-76
2021/04/18 05:45:59;;;;;;;5.80;1.48;;;2.20;99.90;;;;;;5028214;28;20033;-77
2021/04/18 05:48:25;;;;;;;5.07;1.80;;;2.20;99.90;;;;;;5010352;28;20433;-76
2021/04/18 05:50:50;;;;;;;6.13;2.20;;;2.30;99.90;;;;;;5010162;28;20056;-75
2021/04/18 05:53:16;;;;;;;4.32;2.25;;;2.60;99.90;;;;;;5027740;28;20030;-76
2021/04/18 05:55:42;;;;;;;9.32;2.50;;;2.70;99.90;;;;;;5010410;28;20030;-76
2021/04/18 05:58:11;;;;;;;15.05;4.53;;;2.80;99.90;;;;;;5027887;28;20042;-76
2021/04/18 06:00:37;;;;;;;9.88;2.75;;;3.00;99.90;;;;;;5027913;28;20032;-76
2021/04/18 06:03:04;;;;;;;15.32;5.72;;;3.00;99.90;;;;;;5027586;28;20160;-76
2021/04/18 06:05:29;;;;;;;11.55;4.03;;;3.20;99.90;;;;;;5027487;28;20030;-76
2021/04/18 06:07:55;;;;;;;13.23;4.63;;;3.30;99.90;;;;;;5027260;28;20082;-76
2021/04/18 06:10:21;;;;;;;9.05;4.22;;;3.50;99.90;;;;;;5010015;28;20041;-76
2021/04/18 06:12:46;;;;;;;5.75;2.55;;;3.50;99.90;;;;;;5009895;28;20112;-76
2021/04/18 06:15:12;;;;;;;10.85;3.42;;;3.50;99.90;;;;;;5027622;28;20033;-76
2021/04/18 06:17:38;;;;;;;7.80;2.75;;;3.50;99.90;;;;;;4993405;28;20555;-76
2021/04/18 06:20:05;;;;;;;7.55;2.67;;;3.60;99.90;;;;;;5009642;28;20105;-76
2021/04/18 06:22:31;;;;;;;11.00;2.97;;;3.80;99.90;;;;;;5009543;28;20048;-76
2021/04/18 06:24:56;;;;;;;9.27;2.88;;;3.90;99.90;;;;;;5026604;28;20085;-76
2021/04/18 06:27:22;;;;;;;7.38;2.92;;;4.10;99.90;;;;;;5026058;28;20087;-76
2021/04/18 06:29:48;;;;;;;5.72;2.22;;;4.30;99.90;;;;;;4993359;28;20552;-76
2021/04/18 06:32:13;;;;;;;7.80;2.22;;;4.50;99.90;;;;;;5027299;28;20045;-76
2021/04/18 06:34:39;;;;;;;9.05;2.88;;;4.70;99.90;;;;;;5008708;28;20026;-76
2021/04/18 06:37:05;;;;;;;7.80;2.42;;;4.80;99.90;;;;;;5025542;28;20098;-76
2021/04/18 06:39:31;;;;;;;8.88;2.88;;;4.90;99.90;;;;;;5025756;28;20032;-76
2021/04/18 06:42:01;;;;;;;10.52;3.58;;;4.90;99.90;;;;;;5009420;28;20057;-76
2021/04/18 06:44:28;;;;;;;10.00;3.38;;;4.90;99.90;;;;;;5009712;28;20037;-76
2021/04/18 06:46:56;;;;;;;8.55;3.33;;;4.90;99.90;;;;;;5009292;28;20033;-76
2021/04/18 06:49:22;;;;;;;10.75;5.20;;;5.00;99.90;;;;;;5025601;28;20133;-77
2021/04/18 06:51:49;;;;;;;10.43;4.13;;;5.00;99.90;;;;;;4984413;28;20045;-77
2021/04/18 06:54:15;;;;;;;12.40;4.93;;;5.10;99.90;;;;;;5014567;28;20033;-78
2021/04/18 06:56:43;;;;;;;16.38;5.75;;;5.30;99.90;;;;;;5026629;28;20054;-77
2021/04/18 06:59:09;;;;;;;9.35;3.95;;;5.20;99.90;;;;;;5033301;28;20030;-77
2021/04/18 07:01:35;;;;;;;9.32;3.85;;;5.30;99.90;;;;;;5015181;28;20039;-76
2021/04/18 07:04:15;;;;;;;10.02;4.20;;;5.40;99.90;;;;;;5022438;28;20040;-77
2021/04/18 07:06:44;;;;;;;9.90;5.03;;;5.50;99.90;;;;;;5014985;28;20054;-76
2021/04/18 07:09:11;;;;;;;10.20;3.80;;;5.60;99.90;;;;;;5008984;28;20034;-76
2021/04/18 07:11:54;;;;;;;12.57;4.25;;;5.90;99.90;;;;;;4992727;28;20398;-76
2021/04/18 07:14:32;;;;;;;12.68;4.95;;;6.10;99.90;;;;;;5024844;28;20033;-77
2021/04/18 07:17:11;;;;;;;9.20;4.00;;;6.30;99.90;;;;;;5008674;28;20502;-77
2021/04/18 07:19:39;;;;;;;11.55;4.80;;;6.40;99.90;;;;;;5025252;28;20050;-76
2021/04/18 07:22:06;;;;;;;14.85;6.18;;;6.20;99.90;;;;;;5008932;28;20041;-76
2021/04/18 07:24:33;;;;;;;13.90;5.13;;;6.10;99.90;;;;;;5007046;28;20036;-77
2021/04/18 07:27:03;;;;;;;12.88;5.13;;;6.30;99.90;;;;;;5025622;28;20041;-77
2021/04/18 07:29:32;;;;;;;10.10;4.18;;;6.30;99.90;;;;;;5007771;28;20501;-76
2021/04/18 07:31:59;;;;;;;12.82;4.63;;;6.40;99.90;;;;;;4998037;28;20056;-76
2021/04/18 07:34:35;;;;;;;11.98;4.35;;;6.30;99.90;;;;;;5013284;28;20044;-76
2021/04/18 07:37:13;;;;;;;11.95;4.38;;;6.40;99.90;;;;;;4994609;28;20422;-77
2021/04/18 07:39:59;;;;;;;10.98;4.20;;;6.50;99.90;;;;;;4999178;28;20497;-77
2021/04/18 07:42:38;;;;;;;7.60;3.60;;;6.70;99.90;;;;;;5005356;28;20066;-77
2021/04/18 07:45:10;;;;;;;12.85;4.88;;;6.90;99.90;;;;;;5024962;28;20030;-77
2021/04/18 07:47:40;;;;;;;11.75;5.30;;;6.80;99.90;;;;;;5025806;28;20036;-76
2021/04/18 07:50:21;;;;;;;11.00;4.13;;;6.90;99.90;;;;;;4991868;28;20033;-76
2021/04/18 07:52:47;;;;;;;;;;;7.00;99.90;;;;;;5026100;28;20034;-77
2021/04/18 07:55:14;;;;;;;11.90;4.68;;;7.00;99.90;;;;;;5025389;28;19913;-77
2021/04/18 07:57:40;;;;;;;7.47;3.05;;;6.90;99.90;;;;;;5009768;28;20079;-76
2021/04/18 08:00:08;;;;;;;14.77;6.35;;;7.00;99.90;;;;;;4995708;28;20054;-77
2021/04/18 08:02:47;;;;;;;11.73;5.95;;;7.00;99.90;;;;;;5000644;28;20025;-77
2021/04/18 08:05:33;;;;;;;9.65;4.82;;;7.30;99.90;;;;;;5024820;28;20040;-77
2021/04/18 08:08:07;;;;;;;15.93;6.80;;;7.50;99.90;;;;;;4976750;28;20169;-77
2021/04/18 08:10:37;;;;;;;16.02;8.38;;;7.30;99.90;;;;;;4990574;28;20042;-77
2021/04/18 08:13:09;;;;;;;20.08;7.85;;;7.20;99.90;;;;;;4983157;28;20039;-77
2021/04/18 08:15:38;;;;;;;14.18;6.38;;;7.20;99.90;;;;;;4967631;28;20267;-77
2021/04/18 08:18:10;;;;;;;14.60;6.67;;;7.50;99.90;;;;;;4967592;28;20035;-77
2021/04/18 08:20:39;;;;;;;13.40;6.22;;;7.50;99.90;;;;;;4977552;28;20368;-77
2021/04/18 08:23:10;;;;;;;11.70;4.90;;;7.60;99.90;;;;;;4968255;28;20048;-77
2021/04/18 08:25:57;;;;;;;12.60;4.78;;;7.80;99.90;;;;;;4982876;28;20055;-77
2021/04/18 08:28:23;;;;;;;13.70;4.75;;;7.90;99.90;;;;;;4983569;28;20638;-77
2021/04/18 08:31:09;;;;;;;11.63;4.70;;;8.10;99.90;;;;;;4983787;28;20102;-77
2021/04/18 08:33:38;;;;;;;11.02;4.75;;;8.10;99.90;;;;;;4983596;28;20122;-76
2021/04/18 08:36:16;;;;;;;11.27;5.35;;;8.30;99.90;;;;;;4988518;28;20026;-77
2021/04/18 08:38:44;;;;;;;14.05;5.05;;;8.40;99.90;;;;;;4975285;28;20035;-77
2021/04/18 08:41:15;;;;;;;13.15;5.80;;;8.40;99.90;;;;;;4994381;28;20034;-77
2021/04/18 08:43:43;;;;;;;11.27;4.78;;;8.50;99.90;;;;;;4986873;28;20237;-77
2021/04/18 08:46:08;;;;;;;10.13;5.15;;;8.90;99.90;;;;;;5023906;28;20042;-77
2021/04/18 08:48:34;;;;;;;11.15;5.15;;;9.00;99.90;;;;;;5023798;28;20041;-76
2021/04/18 08:51:06;;;;;;;11.82;4.65;;;9.10;99.90;;;;;;5007151;28;20037;-77
2021/04/18 08:53:57;;;;;;;11.48;6.38;;;9.00;99.90;;;;;;5023951;28;20089;-77
2021/04/18 08:56:46;;;;;;;12.25;5.70;;;8.90;99.90;;;;;;5023339;28;20049;-77
2021/04/18 08:59:13;;;;;;;10.15;4.22;;;9.30;99.90;;;;;;5023507;28;20037;-77
2021/04/18 09:01:52;;;;;;;9.90;4.13;;;9.20;99.90;;;;;;5023289;28;20037;-77
2021/04/18 09:04:20;;;;;;;9.32;4.25;;;9.10;99.90;;;;;;5007126;28;20057;-77
2021/04/18 09:06:48;;;;;;;8.45;3.13;;;9.40;99.90;;;;;;5023311;28;20053;-77
2021/04/18 09:09:14;;;;;;;11.02;5.47;;;9.20;99.90;;;;;;5007140;28;20104;-77
2021/04/18 09:11:43;;;;;;;8.80;4.18;;;9.20;99.90;;;;;;5023491;28;20034;-77
2021/04/18 09:14:09;;;;;;;9.35;3.83;;;9.40;99.90;;;;;;5026869;28;20034;-77
2021/04/18 09:16:36;;;;;;;12.00;5.45;;;9.50;99.90;;;;;;5027306;28;20112;-77
2021/04/18 09:19:22;;;;;;;12.30;5.13;;;9.40;99.90;;;;;;5027441;28;20061;-77
2021/04/18 09:22:07;;;;;;;14.65;5.20;;;9.40;99.90;;;;;;5028446;28;20030;-77
2021/04/18 09:24:38;;;;;;;12.95;5.90;;;9.40;99.90;;;;;;5027280;28;20030;-77
2021/04/18 09:27:07;;;;;;;14.20;5.88;;;9.30;99.90;;;;;;5027061;28;20026;-77
2021/04/18 09:29:38;;;;;;;9.73;4.93;;;9.60;99.90;;;;;;5010587;28;20045;-77
2021/04/18 09:32:10;;;;;;;9.25;3.95;;;9.70;99.90;;;;;;5043460;28;20022;-77
2021/04/18 09:34:38;;;;;;;11.10;4.38;;;9.70;99.90;;;;;;5027132;28;20033;-77
2021/04/18 09:37:07;;;;;;;9.25;4.35;;;9.70;99.90;;;;;;5028460;28;20048;-77
2021/04/18 09:39:35;;;;;;;8.80;5.05;;;10.00;99.90;;;;;;5027068;28;20524;-78
2021/04/18 09:42:02;;;;;;;6.50;4.10;;;10.40;99.90;;;;;;5026676;28;20038;-78
2021/04/18 09:44:50;;;;;;;14.00;5.90;;;11.10;99.90;;;;;;5028185;28;20036;-78
2021/04/18 09:47:28;;;;;;;13.45;6.57;;;11.10;99.90;;;;;;5028053;28;20037;-78
2021/04/18 09:50:03;;;;;;;9.90;4.50;;;11.20;99.90;;;;;;5026820;28;20049;-78
2021/04/18 09:52:39;;;;;;;11.70;4.72;;;11.60;99.90;;;;;;5010238;28;20030;-78
2021/04/18 09:55:24;;;;;;;8.48;4.07;;;11.40;99.90;;;;;;5026603;28;20500;-77
2021/04/18 09:58:00;;;;;;;9.85;4.03;;;11.40;99.90;;;;;;5026742;28;20128;-77
2021/04/18 10:00:32;;;;;;;7.40;3.08;;;11.70;99.90;;;;;;5026779;28;20034;-77
2021/04/18 10:03:09;;;;;;;8.20;4.25;;;12.10;99.90;;;;;;5026467;28;20050;-77
2021/04/18 10:05:56;;;;;;;9.05;3.45;;;12.10;99.90;;;;;;5010092;28;20052;-77
2021/04/18 10:08:26;;;;;;;8.00;3.30;;;12.80;99.90;;;;;;5026294;28;20046;-77
2021/04/18 10:11:17;;;;;;;4.78;2.15;;;13.30;99.90;;;;;;5026097;28;20119;-78
2021/04/18 10:13:48;;;;;;;;;;;13.40;99.90;;;;;;5026889;28;20030;-77
2021/04/18 10:16:15;;;;;;;8.13;3.83;;;13.10;99.90;;;;;;5009838;28;19917;-78
2021/04/18 10:19:03;;;;;;;9.27;3.63;;;13.20;99.90;;;;;;5026167;28;20041;-77
2021/04/18 10:21:29;;;;;;;8.95;3.70;;;14.00;99.90;;;;;;5005845;28;20034;-77
2021/04/18 10:23:54;;;;;;;8.10;4.05;;;13.40;99.90;;;;;;5009727;28;20081;-78
2021/04/18 10:26:21;;;;;;;7.68;3.65;;;13.50;99.90;;;;;;5025463;28;20030;-78
2021/04/18 10:28:49;;;;;;;10.25;3.85;;;13.90;99.90;;;;;;5027215;28;20026;-77
2021/04/18 10:31:16;;;;;;;7.35;3.80;;;13.60;99.90;;;;;;5025905;28;20038;-77
2021/04/18 10:33:42;;;;;;;6.53;2.85;;;14.10;99.90;;;;;;5026294;28;20026;-77
2021/04/18 10:36:09;;;;;;;6.75;2.97;;;14.50;99.90;;;;;;5025772;28;20041;-77
2021/04/18 10:38:35;;;;;;;5.78;2.38;;;14.40;99.90;;;;;;5027168;28;20046;-79
2021/04/18 10:41:01;;;;;;;4.82;1.95;;;14.40;99.90;;;;;;5026098;28;20038;-77
2021/04/18 10:43:26;;;;;;;3.78;1.92;;;14.40;99.90;;;;;;5003780;28;20037;-78
2021/04/18 10:45:52;;;;;;;6.00;1.83;;;14.10;99.90;;;;;;5019025;28;20026;-78
2021/04/18 10:48:18;;;;;;;4.18;1.50;;;13.90;99.90;;;;;;5018794;28;20041;-78
2021/04/18 10:50:45;;;;;;;6.00;2.63;;;14.10;99.90;;;;;;5004096;28;20030;-78
2021/04/18 10:53:11;;;;;;;5.15;1.52;;;14.20;99.90;;;;;;5000249;28;20026;-78
2021/04/18 10:55:37;;;;;;;5.72;1.42;;;14.00;99.90;;;;;;5017382;28;20602;-77
2021/04/18 10:58:03;;;;;;;7.90;2.50;;;14.40;99.90;;;;;;5001445;28;20049;-78
2021/04/18 11:00:29;;;;;;;3.60;1.70;;;14.20;99.90;;;;;;5001912;28;20026;-77
2021/04/18 11:02:54;;;;;;;3.67;1.38;;;14.20;99.90;;;;;;4990777;28;20027;-77
2021/04/18 11:05:20;;;;;;;4.57;1.75;;;14.50;99.90;;;;;;4993043;28;20037;-78
2021/04/18 11:07:47;;;;;;;8.38;2.63;;;14.70;99.90;;;;;;5021438;28;20486;-78
2021/04/18 11:10:13;;;;;;;5.30;2.50;;;14.70;99.90;;;;;;4988232;28;20065;-77
2021/04/18 11:12:41;;;;;;;5.22;2.70;;;15.00;99.90;;;;;;5002400;28;20061;-78
2021/04/18 11:15:11;;;;;;;7.57;3.25;;;15.40;99.90;;;;;;4988947;28;20029;-78
2021/04/18 11:17:39;;;;;;;6.43;2.90;;;15.10;99.90;;;;;;4999293;28;20066;-79
2021/04/18 11:20:11;;;;;;;5.32;2.60;;;15.00;99.90;;;;;;4986894;28;20038;-78
2021/04/18 11:22:38;;;;;;;7.78;3.17;;;15.00;99.90;;;;;;5007595;28;20029;-78
2021/04/18 11:25:10;;;;;;;6.70;3.72;;;14.80;99.90;;;;;;4982016;28;20081;-79
2021/04/18 11:27:36;;;;;;;5.85;3.17;;;14.50;99.90;;;;;;4995412;28;20054;-78
2021/04/18 11:30:07;;;;;;;8.45;3.30;;;14.80;99.90;;;;;;4991228;28;20096;-79
2021/04/18 11:32:33;;;;;;;7.20;3.72;;;14.60;99.90;;;;;;5020317;28;20030;-78
2021/04/18 11:35:00;;;;;;;4.90;2.20;;;14.80;99.90;;;;;;4988441;28;20098;-79
2021/04/18 11:37:26;;;;;;;7.95;4.28;;;15.00;99.90;;;;;;5018412;28;20038;-79
2021/04/18 11:39:53;;;;;;;8.88;3.85;;;14.80;99.90;;;;;;4999250;28;20068;-79
2021/04/18 11:42:19;;;;;;;5.93;3.58;;;15.30;99.90;;;;;;5021130;28;20062;-80
2021/04/18 11:44:44;;;;;;;8.50;3.67;;;15.50;99.90;;;;;;4975830;28;20098;-79
2021/04/18 11:47:10;;;;;;;8.60;3.50;;;15.60;99.90;;;;;;4997063;28;20026;-79
2021/04/18 11:49:36;;;;;;;7.13;4.50;;;15.40;99.90;;;;;;4999148;28;20407;-79
2021/04/18 11:52:01;;;;;;;9.18;3.90;;;15.50;99.90;;;;;;4997025;28;20069;-79
2021/04/18 11:54:27;;;;;;;9.07;3.75;;;15.50;99.90;;;;;;4996153;28;20189;-78
2021/04/18 11:56:53;;;;;;;5.78;2.78;;;15.30;99.90;;;;;;5000222;28;20041;-80
2021/04/18 11:59:18;;;;;;;6.05;3.40;;;15.40;99.90;;;;;;4987591;28;20091;-79
2021/04/18 12:01:44;;;;;;;6.20;3.70;;;15.30;99.90;;;;;;5004208;28;20050;-79
2021/04/18 12:04:10;;;;;;;6.60;4.00;;;15.00;99.90;;;;;;5004351;28;20466;-79
2021/04/18 12:06:35;;;;;;;7.68;4.30;;;14.90;99.90;;;;;;4988659;28;20065;-78
2021/04/18 12:09:01;;;;;;;7.03;3.20;;;15.40;99.90;;;;;;5004030;28;20105;-78
2021/04/18 12:11:27;;;;;;;5.78;3.30;;;15.80;99.90;;;;;;5005225;28;20033;-79
2021/04/18 12:13:52;;;;;;;6.75;3.35;;;15.50;99.90;;;;;;5007271;28;20030;-79
2021/04/18 12:16:18;;;;;;;10.57;3.80;;;15.20;99.90;;;;;;4988395;28;20041;-78
2021/04/18 12:18:44;;;;;;;6.68;2.78;;;15.10;99.90;;;;;;5003790;28;20450;-78
2021/04/18 12:21:11;;;;;;;7.28;2.85;;;15.20;99.90;;;;;;5003801;28;20022;-78
2021/04/18 12:23:37;;;;;;;8.75;2.80;;;15.10;99.90;;;;;;5003497;28;20030;-77
2021/04/18 12:26:03;;;;;;;7.45;3.20;;;15.10;99.90;;;;;;5004783;28;20121;-78
2021/04/18 12:28:29;;;;;;;3.65;1.95;;;15.10;99.90;;;;;;5001507;28;20026;-78
2021/04/18 12:30:55;;;;;;;5.18;1.50;;;15.90;99.90;;;;;;5005313;28;20027;-78
2021/04/18 12:33:21;;;;;;;3.72;2.00;;;15.80;99.90;;;;;;5003594;28;20038;-78
2021/04/18 12:35:47;;;;;;;4.68;1.45;;;15.50;99.90;;;;;;4987227;28;20030;-78
2021/04/18 12:38:12;;;;;;;5.45;2.13;;;16.00;99.90;;;;;;5004246;28;20053;-78
2021/04/18 12:40:39;;;;;;;7.00;2.40;;;16.60;99.90;;;;;;4992994;28;20042;-78
2021/04/18 12:43:04;;;;;;;5.70;2.13;;;16.50;99.90;;;;;;4998793;28;20054;-78
2021/04/18 12:45:30;;;;;;;2.97;1.30;;;16.40;99.90;;;;;;4987024;28;20106;-77
2021/04/18 12:47:56;;;;;;;3.55;1.10;;;17.30;99.90;;;;;;4969793;28;20076;-79
2021/04/18 12:50:21;;;;;;;7.50;2.10;;;17.40;99.50;;;;;;4984294;28;20037;-78
2021/04/18 12:52:47;;;;;;;5.70;2.00;;;16.40;99.90;;;;;;4987508;28;20118;-78
2021/04/18 12:55:13;;;;;;;4.90;1.40;;;15.80;99.90;;;;;;4983409;28;20034;-78
2021/04/18 12:57:39;;;;;;;4.78;1.35;;;16.00;99.90;;;;;;4995059;28;20098;-78
2021/04/18 13:00:07;;;;;;;7.47;1.38;;;16.10;99.90;;;;;;4979615;28;20033;-78